Terminal Aerodrome Forecast
Issued by NWS Dodge City, KS

Home | Current Version | Previous Version | Text Only | Print | Product List | Glossary On
Versions: 1 2 3 4 5 6 7 8 9 10 11 12 13 14 15 16 17 18 19 20 21
000
FTUS43 KDDC 291120
TAFDDC
TAF
KDDC 291120Z 2912/3012 03020G28KT 4SM RA BR OVC006
     FM291700 02018G29KT 2SM RA OVC003
     FM300700 36019G27KT 3SM RA OVC003
     FM300900 35019G27KT 3SM -SN OVC008=

USA.gov is the U.S. government's official web portal to all federal, state and local government web resources and services.